sensor_id;sensor_type;location;lat;lon;timestamp;pressure;altitude;pressure_sealevel;temperature;humidity
49585;BME280;35491;49.142;9.210;2022-11-23T00:01:10;98527.75;;;6.53;71.01
49585;BME280;35491;49.142;9.210;2022-11-23T00:02:12;98533.88;;;6.54;71.10
49585;BME280;35491;49.142;9.210;2022-11-23T00:03:16;98534.81;;;6.45;71.49
49585;BME280;35491;49.142;9.210;2022-11-23T00:04:17;98535.78;;;6.62;70.99
49585;BME280;35491;49.142;9.210;2022-11-23T00:05:22;98536.94;;;6.59;70.97
49585;BME280;35491;49.142;9.210;2022-11-23T00:06:24;98535.50;;;6.47;71.47
49585;BME280;35491;49.142;9.210;2022-11-23T00:07:29;98535.81;;;6.44;71.28
49585;BME280;35491;49.142;9.210;2022-11-23T00:08:30;98540.97;;;6.45;71.39
49585;BME280;35491;49.142;9.210;2022-11-23T00:09:34;98543.72;;;6.35;71.62
49585;BME280;35491;49.142;9.210;2022-11-23T00:10:38;98541.69;;;6.29;71.94
49585;BME280;35491;49.142;9.210;2022-11-23T00:11:40;98538.47;;;6.44;71.73
49585;BME280;35491;49.142;9.210;2022-11-23T00:12:47;98534.72;;;6.28;72.19
49585;BME280;35491;49.142;9.210;2022-11-23T00:13:48;98536.00;;;6.24;72.38
49585;BME280;35491;49.142;9.210;2022-11-23T00:14:53;98536.38;;;6.29;72.09
49585;BME280;35491;49.142;9.210;2022-11-23T00:15:54;98532.34;;;6.25;72.33
49585;BME280;35491;49.142;9.210;2022-11-23T00:16:58;98536.28;;;6.39;72.17
49585;BME280;35491;49.142;9.210;2022-11-23T00:18:00;98535.28;;;6.40;71.94
49585;BME280;35491;49.142;9.210;2022-11-23T00:19:05;98532.81;;;6.38;71.73
49585;BME280;35491;49.142;9.210;2022-11-23T00:20:09;98529.84;;;6.42;71.58
49585;BME280;35491;49.142;9.210;2022-11-23T00:21:12;98529.84;;;6.42;71.60
49585;BME280;35491;49.142;9.210;2022-11-23T00:22:17;98533.78;;;6.37;71.79
49585;BME280;35491;49.142;9.210;2022-11-23T00:23:18;98536.19;;;6.49;71.28
49585;BME280;35491;49.142;9.210;2022-11-23T00:24:22;98534.75;;;6.36;71.77
49585;BME280;35491;49.142;9.210;2022-11-23T00:25:24;98534.47;;;6.39;71.88
49585;BME280;35491;49.142;9.210;2022-11-23T00:26:28;98534.88;;;6.53;71.18
49585;BME280;35491;49.142;9.210;2022-11-23T00:27:30;98536.53;;;6.54;71.39
49585;BME280;35491;49.142;9.210;2022-11-23T00:28:36;98537.22;;;6.56;71.18
49585;BME280;35491;49.142;9.210;2022-11-23T00:29:40;98534.53;;;6.48;71.21
49585;BME280;35491;49.142;9.210;2022-11-23T00:30:47;98537.13;;;6.39;71.56
49585;BME280;35491;49.142;9.210;2022-11-23T00:31:49;98532.56;;;6.50;71.28
49585;BME280;35491;49.142;9.210;2022-11-23T00:32:54;98537.13;;;6.39;71.24
49585;BME280;35491;49.142;9.210;2022-11-23T00:33:56;98536.41;;;6.55;70.96
49585;BME280;35491;49.142;9.210;2022-11-23T00:35:00;98532.03;;;6.46;71.16
49585;BME280;35491;49.142;9.210;2022-11-23T00:36:04;98529.00;;;6.41;71.45
49585;BME280;35491;49.142;9.210;2022-11-23T00:37:08;98537.63;;;6.43;71.24
49585;BME280;35491;49.142;9.210;2022-11-23T00:38:10;98532.13;;;6.36;71.54
49585;BME280;35491;49.142;9.210;2022-11-23T00:39:14;98536.03;;;6.50;70.83
49585;BME280;35491;49.142;9.210;2022-11-23T00:40:18;98543.78;;;6.44;71.40
49585;BME280;35491;49.142;9.210;2022-11-23T00:41:22;98543.59;;;6.37;71.41
49585;BME280;35491;49.142;9.210;2022-11-23T00:42:26;98541.38;;;6.32;71.56
49585;BME280;35491;49.142;9.210;2022-11-23T00:43:29;98547.22;;;6.36;71.31
49585;BME280;35491;49.142;9.210;2022-11-23T00:44:36;98543.28;;;6.22;72.07
49585;BME280;35491;49.142;9.210;2022-11-23T00:45:37;98550.84;;;6.35;71.52
49585;BME280;35491;49.142;9.210;2022-11-23T00:46:41;98542.97;;;6.25;71.66
49585;BME280;35491;49.142;9.210;2022-11-23T00:47:43;98545.94;;;6.22;71.99
49585;BME280;35491;49.142;9.210;2022-11-23T00:48:48;98547.16;;;6.28;72.08
49585;BME280;35491;49.142;9.210;2022-11-23T00:49:50;98543.75;;;6.17;72.14
49585;BME280;35491;49.142;9.210;2022-11-23T00:50:54;98550.13;;;6.24;71.85
49585;BME280;35491;49.142;9.210;2022-11-23T00:51:56;98540.66;;;6.22;72.19
49585;BME280;35491;49.142;9.210;2022-11-23T00:53:00;98554.03;;;6.38;71.63
49585;BME280;35491;49.142;9.210;2022-11-23T00:54:02;98551.09;;;6.42;71.59
49585;BME280;35491;49.142;9.210;2022-11-23T00:55:07;98536.69;;;6.26;71.96
49585;BME280;35491;49.142;9.210;2022-11-23T00:56:09;98547.53;;;6.33;72.03
49585;BME280;35491;49.142;9.210;2022-11-23T00:57:14;98547.88;;;6.38;71.52
49585;BME280;35491;49.142;9.210;2022-11-23T00:58:15;98540.81;;;6.47;71.17
49585;BME280;35491;49.142;9.210;2022-11-23T00:59:19;98547.50;;;6.51;70.94
49585;BME280;35491;49.142;9.210;2022-11-23T01:00:26;98547.78;;;6.48;71.30
49585;BME280;35491;49.142;9.210;2022-11-23T01:01:29;98551.97;;;6.50;71.38
49585;BME280;35491;49.142;9.210;2022-11-23T01:02:34;98545.19;;;6.56;71.01
49585;BME280;35491;49.142;9.210;2022-11-23T01:03:37;98555.97;;;6.54;71.03
49585;BME280;35491;49.142;9.210;2022-11-23T01:04:41;98550.66;;;6.54;71.00
49585;BME280;35491;49.142;9.210;2022-11-23T01:05:44;98543.81;;;6.52;71.11
49585;BME280;35491;49.142;9.210;2022-11-23T01:06:48;98553.50;;;6.35;71.66
49585;BME280;35491;49.142;9.210;2022-11-23T01:07:49;98545.78;;;6.42;71.59
49585;BME280;35491;49.142;9.210;2022-11-23T01:08:56;98540.34;;;6.51;71.45
49585;BME280;35491;49.142;9.210;2022-11-23T01:10:00;98543.78;;;6.44;71.57
49585;BME280;35491;49.142;9.210;2022-11-23T01:11:03;98538.97;;;6.47;71.51
49585;BME280;35491;49.142;9.210;2022-11-23T01:12:08;98547.31;;;6.52;71.44
49585;BME280;35491;49.142;9.210;2022-11-23T01:13:09;98540.19;;;6.53;71.24
49585;BME280;35491;49.142;9.210;2022-11-23T01:14:13;98532.59;;;6.58;70.90
49585;BME280;35491;49.142;9.210;2022-11-23T01:15:15;98544.50;;;6.54;70.95
49585;BME280;35491;49.142;9.210;2022-11-23T01:16:23;98545.88;;;6.58;70.98
49585;BME280;35491;49.142;9.210;2022-11-23T01:17:24;98542.91;;;6.61;70.85
49585;BME280;35491;49.142;9.210;2022-11-23T01:18:28;98547.53;;;6.59;70.98
49585;BME280;35491;49.142;9.210;2022-11-23T01:19:30;98549.00;;;6.53;71.08
49585;BME280;35491;49.142;9.210;2022-11-23T01:20:34;98548.00;;;6.54;71.11
49585;BME280;35491;49.142;9.210;2022-11-23T01:21:36;98552.19;;;6.57;71.07
49585;BME280;35491;49.142;9.210;2022-11-23T01:22:40;98541.91;;;6.62;71.01
49585;BME280;35491;49.142;9.210;2022-11-23T01:23:42;98547.91;;;6.64;71.01
49585;BME280;35491;49.142;9.210;2022-11-23T01:24:46;98545.56;;;6.61;71.13
49585;BME280;35491;49.142;9.210;2022-11-23T01:25:47;98542.91;;;6.61;71.01
49585;BME280;35491;49.142;9.210;2022-11-23T01:26:53;98542.06;;;6.61;70.84
49585;BME280;35491;49.142;9.210;2022-11-23T01:27:54;98533.63;;;6.65;70.93
49585;BME280;35491;49.142;9.210;2022-11-23T01:28:58;98542.44;;;6.66;70.75
49585;BME280;35491;49.142;9.210;2022-11-23T01:30:00;98543.91;;;6.60;71.02
49585;BME280;35491;49.142;9.210;2022-11-23T01:31:05;98544.03;;;6.59;70.95
49585;BME280;35491;49.142;9.210;2022-11-23T01:32:09;98548.88;;;6.63;70.97
49585;BME280;35491;49.142;9.210;2022-11-23T01:33:13;98547.22;;;6.62;70.90
49585;BME280;35491;49.142;9.210;2022-11-23T01:34:15;98544.56;;;6.62;71.03
49585;BME280;35491;49.142;9.210;2022-11-23T01:35:19;98547.63;;;6.49;71.13
49585;BME280;35491;49.142;9.210;2022-11-23T01:36:23;98550.88;;;6.61;70.95
49585;BME280;35491;49.142;9.210;2022-11-23T01:37:28;98545.13;;;6.48;71.05
49585;BME280;35491;49.142;9.210;2022-11-23T01:38:29;98540.06;;;6.54;71.14
49585;BME280;35491;49.142;9.210;2022-11-23T01:39:33;98542.59;;;6.64;70.75
49585;BME280;35491;49.142;9.210;2022-11-23T01:40:41;98545.25;;;6.64;70.54
49585;BME280;35491;49.142;9.210;2022-11-23T01:41:45;98542.84;;;6.53;71.12
49585;BME280;35491;49.142;9.210;2022-11-23T01:42:54;98537.75;;;6.60;70.94
49585;BME280;35491;49.142;9.210;2022-11-23T01:43:58;98544.22;;;6.57;70.88
49585;BME280;35491;49.142;9.210;2022-11-23T01:46:34;98546.41;;;6.62;70.94
49585;BME280;35491;49.142;9.210;2022-11-23T01:47:40;98552.53;;;6.62;70.66
49585;BME280;35491;49.142;9.210;2022-11-23T01:48:44;98546.75;;;6.67;70.59
49585;BME280;35491;49.142;9.210;2022-11-23T01:49:51;98542.97;;;6.69;70.67
49585;BME280;35491;49.142;9.210;2022-11-23T01:50:53;98552.91;;;6.67;70.38
49585;BME280;35491;49.142;9.210;2022-11-23T01:52:02;98542.75;;;6.63;70.56
49585;BME280;35491;49.142;9.210;2022-11-23T01:53:05;98547.75;;;6.66;70.42
49585;BME280;35491;49.142;9.210;2022-11-23T01:54:13;98551.72;;;6.62;70.75
49585;BME280;35491;49.142;9.210;2022-11-23T01:55:15;98554.19;;;6.63;70.98
49585;BME280;35491;49.142;9.210;2022-11-23T01:56:25;98544.63;;;6.70;70.36
49585;BME280;35491;49.142;9.210;2022-11-23T01:57:30;98553.78;;;6.76;70.15
49585;BME280;35491;49.142;9.210;2022-11-23T01:58:38;98552.28;;;6.74;70.50
49585;BME280;35491;49.142;9.210;2022-11-23T01:59:45;98547.66;;;6.76;70.39
49585;BME280;35491;49.142;9.210;2022-11-23T02:00:48;98556.25;;;6.69;70.49
49585;BME280;35491;49.142;9.210;2022-11-23T02:01:52;98556.09;;;6.71;70.54
49585;BME280;35491;49.142;9.210;2022-11-23T02:02:59;98559.88;;;6.68;70.66
49585;BME280;35491;49.142;9.210;2022-11-23T02:04:06;98561.66;;;6.60;70.90
49585;BME280;35491;49.142;9.210;2022-11-23T02:05:10;98565.16;;;6.60;70.71
49585;BME280;35491;49.142;9.210;2022-11-23T02:06:17;98566.81;;;6.61;70.77
49585;BME280;35491;49.142;9.210;2022-11-23T02:07:23;98564.97;;;6.62;70.67
49585;BME280;35491;49.142;9.210;2022-11-23T02:08:25;98564.59;;;6.56;70.91
49585;BME280;35491;49.142;9.210;2022-11-23T02:09:31;98567.69;;;6.70;70.65
49585;BME280;35491;49.142;9.210;2022-11-23T02:10:34;98569.72;;;6.50;71.47
49585;BME280;35491;49.142;9.210;2022-11-23T02:11:39;98566.59;;;6.54;71.55
49585;BME280;35491;49.142;9.210;2022-11-23T02:12:40;98565.16;;;6.60;71.04
49585;BME280;35491;49.142;9.210;2022-11-23T02:13:46;98566.91;;;6.51;71.28
49585;BME280;35491;49.142;9.210;2022-11-23T02:14:48;98562.63;;;6.59;71.15
49585;BME280;35491;49.142;9.210;2022-11-23T02:15:54;98563.69;;;6.66;70.91
49585;BME280;35491;49.142;9.210;2022-11-23T02:16:57;98568.16;;;6.65;70.85
49585;BME280;35491;49.142;9.210;2022-11-23T02:18:08;98574.38;;;6.74;70.82
49585;BME280;35491;49.142;9.210;2022-11-23T02:19:28;98565.72;;;6.72;70.79
49585;BME280;35491;49.142;9.210;2022-11-23T02:20:36;98570.72;;;6.75;70.47
49585;BME280;35491;49.142;9.210;2022-11-23T02:21:38;98570.91;;;6.82;70.34
49585;BME280;35491;49.142;9.210;2022-11-23T02:22:48;98566.28;;;6.84;70.39
49585;BME280;35491;49.142;9.210;2022-11-23T02:23:56;98564.25;;;6.78;70.57
49585;BME280;35491;49.142;9.210;2022-11-23T02:25:06;98579.72;;;6.82;70.24
49585;BME280;35491;49.142;9.210;2022-11-23T02:26:14;98571.75;;;6.82;70.37
49585;BME280;35491;49.142;9.210;2022-11-23T02:27:19;98566.41;;;6.74;70.38
49585;BME280;35491;49.142;9.210;2022-11-23T02:28:25;98578.28;;;6.88;70.18
49585;BME280;35491;49.142;9.210;2022-11-23T02:29:31;98569.97;;;6.91;69.96
49585;BME280;35491;49.142;9.210;2022-11-23T02:30:37;98571.34;;;6.95;69.87
49585;BME280;35491;49.142;9.210;2022-11-23T02:31:42;98571.34;;;6.95;69.85
49585;BME280;35491;49.142;9.210;2022-11-23T02:32:43;98579.00;;;6.98;69.89
49585;BME280;35491;49.142;9.210;2022-11-23T02:33:47;98572.31;;;6.94;69.88
49585;BME280;35491;49.142;9.210;2022-11-23T02:34:49;98567.69;;;6.96;69.73
49585;BME280;35491;49.142;9.210;2022-11-23T02:35:55;98566.69;;;6.97;69.95
49585;BME280;35491;49.142;9.210;2022-11-23T02:36:57;98570.94;;;6.90;69.96
49585;BME280;35491;49.142;9.210;2022-11-23T02:38:04;98567.53;;;6.98;70.09
49585;BME280;35491;49.142;9.210;2022-11-23T02:39:09;98570.81;;;6.92;70.09
49585;BME280;35491;49.142;9.210;2022-11-23T02:40:22;98564.34;;;6.94;69.87
49585;BME280;35491;49.142;9.210;2022-11-23T02:41:34;98568.97;;;6.92;70.41
49585;BME280;35491;49.142;9.210;2022-11-23T02:42:38;98567.66;;;6.88;70.15
49585;BME280;35491;49.142;9.210;2022-11-23T02:43:39;98573.78;;;6.89;70.47
49585;BME280;35491;49.142;9.210;2022-11-23T02:44:48;98571.97;;;6.89;70.15
49585;BME280;35491;49.142;9.210;2022-11-23T02:45:55;98572.31;;;6.94;70.04
49585;BME280;35491;49.142;9.210;2022-11-23T02:47:00;98574.66;;;6.97;69.89
49585;BME280;35491;49.142;9.210;2022-11-23T02:48:02;98582.81;;;7.04;70.04
49585;BME280;35491;49.142;9.210;2022-11-23T02:49:07;98577.31;;;6.97;69.98
49585;BME280;35491;49.142;9.210;2022-11-23T02:50:08;98567.22;;;7.01;69.87
49585;BME280;35491;49.142;9.210;2022-11-23T02:51:13;98568.03;;;7.01;69.71
49585;BME280;35491;49.142;9.210;2022-11-23T02:52:15;98576.53;;;7.05;69.58
49585;BME280;35491;49.142;9.210;2022-11-23T02:53:19;98573.34;;;7.01;69.86
49585;BME280;35491;49.142;9.210;2022-11-23T02:54:21;98566.69;;;6.97;69.99
49585;BME280;35491;49.142;9.210;2022-11-23T02:55:25;98562.38;;;6.96;69.95
49585;BME280;35491;49.142;9.210;2022-11-23T02:56:29;98566.31;;;6.92;70.12
49585;BME280;35491;49.142;9.210;2022-11-23T02:57:33;98568.97;;;6.92;70.01
49585;BME280;35491;49.142;9.210;2022-11-23T02:58:34;98568.03;;;7.01;69.85
49585;BME280;35491;49.142;9.210;2022-11-23T02:59:38;98566.19;;;6.94;69.81
49585;BME280;35491;49.142;9.210;2022-11-23T03:00:40;98572.00;;;6.97;70.00
49585;BME280;35491;49.142;9.210;2022-11-23T03:01:44;98569.53;;;7.04;69.87
49585;BME280;35491;49.142;9.210;2022-11-23T03:02:45;98567.41;;;7.08;69.76
49585;BME280;35491;49.142;9.210;2022-11-23T03:03:50;98573.00;;;6.96;69.78
49585;BME280;35491;49.142;9.210;2022-11-23T03:04:51;98576.00;;;7.01;69.92
49585;BME280;35491;49.142;9.210;2022-11-23T03:05:55;98570.84;;;7.00;69.88
49585;BME280;35491;49.142;9.210;2022-11-23T03:06:57;98571.03;;;6.98;69.85
49585;BME280;35491;49.142;9.210;2022-11-23T03:08:01;98568.03;;;7.01;69.95
49585;BME280;35491;49.142;9.210;2022-11-23T03:09:02;98572.19;;;7.04;69.90
49585;BME280;35491;49.142;9.210;2022-11-23T03:10:08;98566.69;;;6.97;69.94
49585;BME280;35491;49.142;9.210;2022-11-23T03:11:09;98568.03;;;7.01;69.87
49585;BME280;35491;49.142;9.210;2022-11-23T03:12:16;98569.41;;;7.06;69.65
49585;BME280;35491;49.142;9.210;2022-11-23T03:13:18;98566.31;;;6.92;70.10
49585;BME280;35491;49.142;9.210;2022-11-23T03:14:22;98566.22;;;7.02;69.71
49585;BME280;35491;49.142;9.210;2022-11-23T03:15:23;98563.06;;;6.98;69.90
49585;BME280;35491;49.142;9.210;2022-11-23T03:16:28;98571.84;;;6.99;69.46
49585;BME280;35491;49.142;9.210;2022-11-23T03:17:30;98567.72;;;7.05;69.67
49585;BME280;35491;49.142;9.210;2022-11-23T03:18:35;98569.06;;;7.09;69.61
49585;BME280;35491;49.142;9.210;2022-11-23T03:19:36;98566.78;;;7.14;69.24
49585;BME280;35491;49.142;9.210;2022-11-23T03:20:40;98569.06;;;7.09;69.38
49585;BME280;35491;49.142;9.210;2022-11-23T03:21:42;98580.03;;;7.06;69.34
49585;BME280;35491;49.142;9.210;2022-11-23T03:22:46;98572.66;;;6.99;69.60
49585;BME280;35491;49.142;9.210;2022-11-23T03:23:47;98574.34;;;7.00;69.72
49585;BME280;35491;49.142;9.210;2022-11-23T03:24:51;98577.47;;;6.96;69.82
49585;BME280;35491;49.142;9.210;2022-11-23T03:25:57;98575.06;;;7.11;69.61
49585;BME280;35491;49.142;9.210;2022-11-23T03:27:02;98575.41;;;7.08;69.22
49585;BME280;35491;49.142;9.210;2022-11-23T03:28:06;98569.72;;;7.02;69.58
49585;BME280;35491;49.142;9.210;2022-11-23T03:29:10;98573.53;;;7.00;69.47
49585;BME280;35491;49.142;9.210;2022-11-23T03:30:12;98570.22;;;7.06;69.44
49585;BME280;35491;49.142;9.210;2022-11-23T03:31:16;98579.03;;;7.07;69.58
49585;BME280;35491;49.142;9.210;2022-11-23T03:32:17;98577.00;;;7.00;69.64
49585;BME280;35491;49.142;9.210;2022-11-23T03:33:22;98578.84;;;7.00;69.66
49585;BME280;35491;49.142;9.210;2022-11-23T03:34:23;98574.81;;;6.96;69.43
49585;BME280;35491;49.142;9.210;2022-11-23T03:35:27;98579.94;;;6.89;69.77
49585;BME280;35491;49.142;9.210;2022-11-23T03:36:29;98578.09;;;6.90;69.72
49585;BME280;35491;49.142;9.210;2022-11-23T03:37:33;98584.56;;;6.87;69.73
49585;BME280;35491;49.142;9.210;2022-11-23T03:38:35;98587.22;;;6.87;69.67
49585;BME280;35491;49.142;9.210;2022-11-23T03:39:39;98576.00;;;7.01;69.56
49585;BME280;35491;49.142;9.210;2022-11-23T03:40:43;98570.72;;;7.10;69.34
49585;BME280;35491;49.142;9.210;2022-11-23T03:41:47;98575.41;;;7.08;69.46
49585;BME280;35491;49.142;9.210;2022-11-23T03:42:50;98571.84;;;6.99;69.51
49585;BME280;35491;49.142;9.210;2022-11-23T03:43:56;98571.53;;;7.02;69.45
49585;BME280;35491;49.142;9.210;2022-11-23T03:44:58;98569.06;;;7.09;69.35
49585;BME280;35491;49.142;9.210;2022-11-23T03:46:02;98570.22;;;7.06;69.15
49585;BME280;35491;49.142;9.210;2022-11-23T03:47:03;98566.78;;;7.14;69.08
49585;BME280;35491;49.142;9.210;2022-11-23T03:48:08;98570.72;;;7.10;69.13
49585;BME280;35491;49.142;9.210;2022-11-23T03:49:09;98566.78;;;7.14;68.82
49585;BME280;35491;49.142;9.210;2022-11-23T03:50:13;98563.22;;;7.05;69.55
49585;BME280;35491;49.142;9.210;2022-11-23T03:51:15;98568.38;;;6.98;69.17
49585;BME280;35491;49.142;9.210;2022-11-23T03:52:19;98571.59;;;6.84;69.60
49585;BME280;35491;49.142;9.210;2022-11-23T03:53:20;98563.84;;;6.91;69.49
49585;BME280;35491;49.142;9.210;2022-11-23T03:54:24;98563.66;;;6.92;69.71
49585;BME280;35491;49.142;9.210;2022-11-23T03:55:26;98575.25;;;6.83;69.98
49585;BME280;35491;49.142;9.210;2022-11-23T03:56:30;98565.34;;;6.93;69.57
49585;BME280;35491;49.142;9.210;2022-11-23T03:57:32;98568.69;;;6.95;69.35
49585;BME280;35491;49.142;9.210;2022-11-23T03:58:36;98564.88;;;6.98;69.58
49585;BME280;35491;49.142;9.210;2022-11-23T03:59:40;98564.34;;;6.94;69.75
49585;BME280;35491;49.142;9.210;2022-11-23T04:00:44;98568.94;;;6.84;69.90
49585;BME280;35491;49.142;9.210;2022-11-23T04:01:46;98562.00;;;6.91;69.84
49585;BME280;35491;49.142;9.210;2022-11-23T04:02:50;98560.75;;;7.03;69.49
49585;BME280;35491;49.142;9.210;2022-11-23T04:03:51;98564.56;;;7.01;69.61
49585;BME280;35491;49.142;9.210;2022-11-23T04:04:55;98547.41;;;6.95;69.82
49585;BME280;35491;49.142;9.210;2022-11-23T04:05:57;98567.72;;;7.05;69.37
49585;BME280;35491;49.142;9.210;2022-11-23T04:07:01;98555.91;;;6.99;69.81
49585;BME280;35491;49.142;9.210;2022-11-23T04:08:03;98567.53;;;6.71;70.46
49585;BME280;35491;49.142;9.210;2022-11-23T04:09:07;98555.00;;;6.90;70.08
49585;BME280;35491;49.142;9.210;2022-11-23T04:10:08;98550.91;;;6.96;69.61
49585;BME280;35491;49.142;9.210;2022-11-23T04:11:13;98557.75;;;6.98;69.63
49585;BME280;35491;49.142;9.210;2022-11-23T04:12:14;98557.53;;;6.92;70.04
49585;BME280;35491;49.142;9.210;2022-11-23T04:13:18;98559.94;;;7.03;69.41
49585;BME280;35491;49.142;9.210;2022-11-23T04:14:20;98551.41;;;6.99;69.71
49585;BME280;35491;49.142;9.210;2022-11-23T04:15:26;98564.00;;;6.89;69.64
49585;BME280;35491;49.142;9.210;2022-11-23T04:16:28;98555.88;;;6.91;69.82
49585;BME280;35491;49.142;9.210;2022-11-23T04:17:32;98551.72;;;6.88;69.60
49585;BME280;35491;49.142;9.210;2022-11-23T04:18:33;98555.00;;;6.90;69.74
49585;BME280;35491;49.142;9.210;2022-11-23T04:19:37;98553.03;;;6.92;69.60
49585;BME280;35491;49.142;9.210;2022-11-23T04:20:39;98552.34;;;6.90;69.78
49585;BME280;35491;49.142;9.210;2022-11-23T04:21:43;98553.56;;;6.96;69.79
49585;BME280;35491;49.142;9.210;2022-11-23T04:22:44;98549.41;;;6.93;69.58
49585;BME280;35491;49.142;9.210;2022-11-23T04:23:48;98550.94;;;7.04;69.46
49585;BME280;35491;49.142;9.210;2022-11-23T04:24:50;98551.47;;;7.08;69.21
49585;BME280;35491;49.142;9.210;2022-11-23T04:25:54;98551.00;;;7.12;69.03
49585;BME280;35491;49.142;9.210;2022-11-23T04:26:56;98543.44;;;6.99;69.32
49585;BME280;35491;49.142;9.210;2022-11-23T04:28:00;98541.66;;;7.08;69.09
49585;BME280;35491;49.142;9.210;2022-11-23T04:29:01;98539.88;;;7.17;69.09
49585;BME280;35491;49.142;9.210;2022-11-23T04:30:07;98548.47;;;7.11;68.94
49585;BME280;35491;49.142;9.210;2022-11-23T04:31:11;98549.13;;;7.05;69.15
49585;BME280;35491;49.142;9.210;2022-11-23T04:32:15;98547.16;;;7.07;69.37
49585;BME280;35491;49.142;9.210;2022-11-23T04:33:19;98548.81;;;7.08;69.25
49585;BME280;35491;49.142;9.210;2022-11-23T04:34:23;98548.44;;;7.02;69.33
49585;BME280;35491;49.142;9.210;2022-11-23T04:35:24;98551.47;;;7.08;69.05
49585;BME280;35491;49.142;9.210;2022-11-23T04:36:29;98542.81;;;7.06;69.23
49585;BME280;35491;49.142;9.210;2022-11-23T04:37:30;98549.13;;;7.05;69.08
49585;BME280;35491;49.142;9.210;2022-11-23T04:38:34;98542.94;;;6.96;69.27
49585;BME280;35491;49.142;9.210;2022-11-23T04:39:36;98541.44;;;6.93;69.25
49585;BME280;35491;49.142;9.210;2022-11-23T04:40:40;98548.75;;;6.99;69.33
49585;BME280;35491;49.142;9.210;2022-11-23T04:41:43;98545.97;;;7.01;69.25
49585;BME280;35491;49.142;9.210;2022-11-23T04:42:47;98544.16;;;7.10;69.10
49585;BME280;35491;49.142;9.210;2022-11-23T04:43:52;98542.41;;;6.92;69.26
49585;BME280;35491;49.142;9.210;2022-11-23T04:44:56;98543.75;;;6.88;69.52
49585;BME280;35491;49.142;9.210;2022-11-23T04:46:16;98551.03;;;6.86;69.14
49585;BME280;35491;49.142;9.210;2022-11-23T04:47:20;98543.25;;;6.93;69.28
49585;BME280;35491;49.142;9.210;2022-11-23T04:48:22;98536.97;;;6.94;69.23
49585;BME280;35491;49.142;9.210;2022-11-23T04:49:26;98539.44;;;6.95;69.52
49585;BME280;35491;49.142;9.210;2022-11-23T04:50:28;98535.16;;;7.02;69.30
49585;BME280;35491;49.142;9.210;2022-11-23T04:51:34;98541.16;;;7.05;69.13
49585;BME280;35491;49.142;9.210;2022-11-23T04:52:35;98535.84;;;7.05;68.86
49585;BME280;35491;49.142;9.210;2022-11-23T04:53:39;98542.09;;;6.95;69.31
49585;BME280;35491;49.142;9.210;2022-11-23T04:54:41;98538.91;;;6.83;69.41
49585;BME280;35491;49.142;9.210;2022-11-23T04:55:45;98539.75;;;6.92;68.91
49585;BME280;35491;49.142;9.210;2022-11-23T04:56:47;98540.16;;;6.71;69.35
49585;BME280;35491;49.142;9.210;2022-11-23T04:57:51;98539.88;;;6.82;69.48
49585;BME280;35491;49.142;9.210;2022-11-23T04:58:53;98540.88;;;6.81;69.24
49585;BME280;35491;49.142;9.210;2022-11-23T04:59:57;98539.56;;;6.85;69.32
49585;BME280;35491;49.142;9.210;2022-11-23T05:00:59;98544.81;;;6.77;69.41
49585;BME280;35491;49.142;9.210;2022-11-23T05:02:13;98544.09;;;6.93;69.00
49585;BME280;35491;49.142;9.210;2022-11-23T05:03:22;98537.31;;;6.72;69.37
49585;BME280;35491;49.142;9.210;2022-11-23T05:04:33;98537.66;;;6.69;69.75
49585;BME280;35491;49.142;9.210;2022-11-23T05:05:44;98544.09;;;6.67;69.30
49585;BME280;35491;49.142;9.210;2022-11-23T05:06:57;98545.97;;;6.75;69.30
49585;BME280;35491;49.142;9.210;2022-11-23T05:08:06;98541.56;;;6.83;69.22
49585;BME280;35491;49.142;9.210;2022-11-23T05:09:22;98539.88;;;6.82;69.31
49585;BME280;35491;49.142;9.210;2022-11-23T05:10:33;98539.75;;;6.92;69.01
49585;BME280;35491;49.142;9.210;2022-11-23T05:11:49;98542.06;;;6.87;68.99
49585;BME280;35491;49.142;9.210;2022-11-23T05:12:59;98538.31;;;6.71;69.42
49585;BME280;35491;49.142;9.210;2022-11-23T05:14:15;98538.38;;;6.80;69.11
49585;BME280;35491;49.142;9.210;2022-11-23T05:15:26;98539.47;;;6.69;69.43
49585;BME280;35491;49.142;9.210;2022-11-23T05:16:44;98545.03;;;6.84;68.79
49585;BME280;35491;49.142;9.210;2022-11-23T05:18:02;98534.06;;;6.79;68.92
49585;BME280;35491;49.142;9.210;2022-11-23T05:19:19;98540.03;;;6.81;68.81
49585;BME280;35491;49.142;9.210;2022-11-23T05:20:30;98540.97;;;6.71;69.29
49585;BME280;35491;49.142;9.210;2022-11-23T05:21:45;98539.41;;;6.61;69.50
49585;BME280;35491;49.142;9.210;2022-11-23T05:22:56;98538.78;;;6.67;69.36
49585;BME280;35491;49.142;9.210;2022-11-23T05:24:08;98538.69;;;6.77;69.27
49585;BME280;35491;49.142;9.210;2022-11-23T05:25:17;98556.59;;;6.75;69.09
49585;BME280;35491;49.142;9.210;2022-11-23T05:26:28;98542.81;;;6.71;69.56
49585;BME280;35491;49.142;9.210;2022-11-23T05:27:31;98552.59;;;6.70;69.34
49585;BME280;35491;49.142;9.210;2022-11-23T05:28:36;98552.22;;;6.65;69.87
49585;BME280;35491;49.142;9.210;2022-11-23T05:29:38;98550.66;;;6.81;69.30
49585;BME280;35491;49.142;9.210;2022-11-23T05:30:43;98551.72;;;6.88;69.13
49585;BME280;35491;49.142;9.210;2022-11-23T05:31:44;98548.19;;;6.87;68.99
49585;BME280;35491;49.142;9.210;2022-11-23T05:32:48;98541.25;;;6.95;68.79
49585;BME280;35491;49.142;9.210;2022-11-23T05:33:53;98544.28;;;7.00;68.62
49585;BME280;35491;49.142;9.210;2022-11-23T05:34:57;98537.22;;;6.82;69.06
49585;BME280;35491;49.142;9.210;2022-11-23T05:36:00;98543.09;;;6.94;68.92
49585;BME280;35491;49.142;9.210;2022-11-23T05:37:04;98543.78;;;6.96;68.66
49585;BME280;35491;49.142;9.210;2022-11-23T05:38:06;98543.09;;;6.94;68.88
49585;BME280;35491;49.142;9.210;2022-11-23T05:39:13;98550.34;;;6.84;68.76
49585;BME280;35491;49.142;9.210;2022-11-23T05:40:23;98544.72;;;6.87;68.84
49585;BME280;35491;49.142;9.210;2022-11-23T05:41:28;98543.09;;;6.94;68.58
49585;BME280;35491;49.142;9.210;2022-11-23T05:42:29;98548.06;;;6.89;68.69
49585;BME280;35491;49.142;9.210;2022-11-23T05:43:33;98546.00;;;6.83;68.88
49585;BME280;35491;49.142;9.210;2022-11-23T05:44:40;98542.69;;;6.81;69.00
49585;BME280;35491;49.142;9.210;2022-11-23T05:45:41;98543.69;;;6.80;69.05
49585;BME280;35491;49.142;9.210;2022-11-23T05:46:45;98538.09;;;6.91;68.84
49585;BME280;35491;49.142;9.210;2022-11-23T05:47:50;98545.44;;;6.97;68.68